sensor_id;sensor_type;location;lat;lon;timestamp;temperature;humidity
33093;DHT22;19456;46.104;12.908;2022-08-14T00:02:23;19.30;99.90
33093;DHT22;19456;46.104;12.908;2022-08-14T00:04:48;19.20;99.90
33093;DHT22;19456;46.104;12.908;2022-08-14T00:07:16;19.10;99.90
33093;DHT22;19456;46.104;12.908;2022-08-14T00:09:42;19.10;99.90
33093;DHT22;19456;46.104;12.908;2022-08-14T00:12:07;19.00;99.90
33093;DHT22;19456;46.104;12.908;2022-08-14T00:14:33;19.00;99.90
33093;DHT22;19456;46.104;12.908;2022-08-14T00:16:59;19.00;99.90
33093;DHT22;19456;46.104;12.908;2022-08-14T00:19:24;18.90;99.90
33093;DHT22;19456;46.104;12.908;2022-08-14T00:21:50;18.80;99.90
33093;DHT22;19456;46.104;12.908;2022-08-14T00:24:20;18.90;99.90
33093;DHT22;19456;46.104;12.908;2022-08-14T00:26:46;18.90;99.90
33093;DHT22;19456;46.104;12.908;2022-08-14T00:29:12;18.90;99.90
33093;DHT22;19456;46.104;12.908;2022-08-14T00:31:37;19.00;99.90
33093;DHT22;19456;46.104;12.908;2022-08-14T00:34:03;18.90;99.90
33093;DHT22;19456;46.104;12.908;2022-08-14T00:36:29;18.60;99.90
33093;DHT22;19456;46.104;12.908;2022-08-14T00:38:54;18.70;99.90
33093;DHT22;19456;46.104;12.908;2022-08-14T00:41:20;18.70;99.90
33093;DHT22;19456;46.104;12.908;2022-08-14T00:43:45;18.80;99.90
33093;DHT22;19456;46.104;12.908;2022-08-14T00:46:11;18.80;99.90
33093;DHT22;19456;46.104;12.908;2022-08-14T00:48:37;18.80;99.90
33093;DHT22;19456;46.104;12.908;2022-08-14T00:51:03;18.70;99.90
33093;DHT22;19456;46.104;12.908;2022-08-14T00:53:29;18.50;99.90
33093;DHT22;19456;46.104;12.908;2022-08-14T00:55:56;18.20;99.90
33093;DHT22;19456;46.104;12.908;2022-08-14T00:58:22;18.10;99.90
33093;DHT22;19456;46.104;12.908;2022-08-14T01:01:02;18.20;99.90
33093;DHT22;19456;46.104;12.908;2022-08-14T01:03:28;18.30;99.90
33093;DHT22;19456;46.104;12.908;2022-08-14T01:05:54;18.50;99.90
33093;DHT22;19456;46.104;12.908;2022-08-14T01:08:22;18.60;99.90
33093;DHT22;19456;46.104;12.908;2022-08-14T01:10:47;18.60;99.90
33093;DHT22;19456;46.104;12.908;2022-08-14T01:13:49;18.60;99.90
33093;DHT22;19456;46.104;12.908;2022-08-14T01:16:10;18.50;99.90
33093;DHT22;19456;46.104;12.908;2022-08-14T01:18:36;18.20;99.90
33093;DHT22;19456;46.104;12.908;2022-08-14T01:21:30;18.20;99.90
33093;DHT22;19456;46.104;12.908;2022-08-14T01:23:56;18.40;99.90
33093;DHT22;19456;46.104;12.908;2022-08-14T01:26:22;18.50;99.90
33093;DHT22;19456;46.104;12.908;2022-08-14T01:28:51;18.60;99.90
33093;DHT22;19456;46.104;12.908;2022-08-14T01:31:21;18.40;99.90
33093;DHT22;19456;46.104;12.908;2022-08-14T01:33:47;18.00;99.90
33093;DHT22;19456;46.104;12.908;2022-08-14T01:36:14;17.70;99.90
33093;DHT22;19456;46.104;12.908;2022-08-14T01:38:45;17.60;99.90
33093;DHT22;19456;46.104;12.908;2022-08-14T01:41:13;17.40;99.90
33093;DHT22;19456;46.104;12.908;2022-08-14T01:43:43;17.20;99.90
33093;DHT22;19456;46.104;12.908;2022-08-14T01:46:08;17.20;99.90
33093;DHT22;19456;46.104;12.908;2022-08-14T01:48:36;17.30;99.90
33093;DHT22;19456;46.104;12.908;2022-08-14T01:51:02;17.60;99.90
33093;DHT22;19456;46.104;12.908;2022-08-14T01:53:28;17.80;99.90
33093;DHT22;19456;46.104;12.908;2022-08-14T01:55:54;17.90;99.90
33093;DHT22;19456;46.104;12.908;2022-08-14T01:58:22;18.00;99.90
33093;DHT22;19456;46.104;12.908;2022-08-14T02:00:50;18.10;99.90
33093;DHT22;19456;46.104;12.908;2022-08-14T02:03:19;17.90;99.90
33093;DHT22;19456;46.104;12.908;2022-08-14T02:05:44;17.80;99.90
33093;DHT22;19456;46.104;12.908;2022-08-14T02:08:10;17.60;99.90
33093;DHT22;19456;46.104;12.908;2022-08-14T02:10:39;17.60;99.90
33093;DHT22;19456;46.104;12.908;2022-08-14T02:13:06;17.50;99.90
33093;DHT22;19456;46.104;12.908;2022-08-14T02:15:32;17.40;99.90
33093;DHT22;19456;46.104;12.908;2022-08-14T02:17:58;17.50;99.90
33093;DHT22;19456;46.104;12.908;2022-08-14T02:20:32;17.70;99.90
33093;DHT22;19456;46.104;12.908;2022-08-14T02:22:58;17.80;99.90
33093;DHT22;19456;46.104;12.908;2022-08-14T02:25:24;17.80;99.90
33093;DHT22;19456;46.104;12.908;2022-08-14T02:27:49;17.80;99.90
33093;DHT22;19456;46.104;12.908;2022-08-14T02:30:15;17.90;99.90
33093;DHT22;19456;46.104;12.908;2022-08-14T02:32:41;17.90;99.90
33093;DHT22;19456;46.104;12.908;2022-08-14T02:35:07;18.00;99.90
33093;DHT22;19456;46.104;12.908;2022-08-14T02:37:39;17.90;99.90
33093;DHT22;19456;46.104;12.908;2022-08-14T02:40:05;18.00;99.90
33093;DHT22;19456;46.104;12.908;2022-08-14T02:42:31;17.80;99.90
33093;DHT22;19456;46.104;12.908;2022-08-14T02:44:57;17.70;99.90
33093;DHT22;19456;46.104;12.908;2022-08-14T02:47:22;17.70;99.90
33093;DHT22;19456;46.104;12.908;2022-08-14T02:49:48;17.60;99.90
33093;DHT22;19456;46.104;12.908;2022-08-14T02:52:14;17.60;99.90
33093;DHT22;19456;46.104;12.908;2022-08-14T02:54:39;17.40;99.90
33093;DHT22;19456;46.104;12.908;2022-08-14T02:57:05;17.30;99.90
33093;DHT22;19456;46.104;12.908;2022-08-14T02:59:31;17.10;99.90
33093;DHT22;19456;46.104;12.908;2022-08-14T03:01:58;16.90;99.90
33093;DHT22;19456;46.104;12.908;2022-08-14T03:04:24;16.90;99.90
33093;DHT22;19456;46.104;12.908;2022-08-14T03:06:50;16.90;99.90
33093;DHT22;19456;46.104;12.908;2022-08-14T03:09:16;16.80;99.90
33093;DHT22;19456;46.104;12.908;2022-08-14T03:11:41;16.80;99.90
33093;DHT22;19456;46.104;12.908;2022-08-14T03:14:08;16.80;99.90
33093;DHT22;19456;46.104;12.908;2022-08-14T03:16:35;16.70;99.90
33093;DHT22;19456;46.104;12.908;2022-08-14T03:19:02;16.80;99.90
33093;DHT22;19456;46.104;12.908;2022-08-14T03:21:28;16.80;99.90
33093;DHT22;19456;46.104;12.908;2022-08-14T03:23:57;16.90;99.90
33093;DHT22;19456;46.104;12.908;2022-08-14T03:26:39;16.90;99.90
33093;DHT22;19456;46.104;12.908;2022-08-14T03:29:05;17.00;99.90
33093;DHT22;19456;46.104;12.908;2022-08-14T03:31:31;17.10;99.90
33093;DHT22;19456;46.104;12.908;2022-08-14T03:33:57;17.10;99.90
33093;DHT22;19456;46.104;12.908;2022-08-14T03:36:22;17.20;99.90
33093;DHT22;19456;46.104;12.908;2022-08-14T03:38:49;17.30;99.90
33093;DHT22;19456;46.104;12.908;2022-08-14T03:41:20;17.40;99.90
33093;DHT22;19456;46.104;12.908;2022-08-14T03:43:47;17.40;99.90
33093;DHT22;19456;46.104;12.908;2022-08-14T03:46:13;17.50;99.90
33093;DHT22;19456;46.104;12.908;2022-08-14T03:48:39;17.50;99.90
33093;DHT22;19456;46.104;12.908;2022-08-14T03:51:05;17.40;99.90
33093;DHT22;19456;46.104;12.908;2022-08-14T03:53:32;17.50;99.90
33093;DHT22;19456;46.104;12.908;2022-08-14T03:56:05;17.50;99.90
33093;DHT22;19456;46.104;12.908;2022-08-14T03:58:31;17.60;99.90
33093;DHT22;19456;46.104;12.908;2022-08-14T04:00:57;17.70;99.90
33093;DHT22;19456;46.104;12.908;2022-08-14T04:03:23;17.70;99.90
33093;DHT22;19456;46.104;12.908;2022-08-14T04:05:50;17.60;99.90
33093;DHT22;19456;46.104;12.908;2022-08-14T04:08:16;17.60;99.90
33093;DHT22;19456;46.104;12.908;2022-08-14T04:10:42;17.70;99.90
33093;DHT22;19456;46.104;12.908;2022-08-14T04:13:11;17.70;99.90
33093;DHT22;19456;46.104;12.908;2022-08-14T04:15:37;17.80;99.90
33093;DHT22;19456;46.104;12.908;2022-08-14T04:18:05;17.80;99.90
33093;DHT22;19456;46.104;12.908;2022-08-14T04:20:36;17.70;99.90
33093;DHT22;19456;46.104;12.908;2022-08-14T04:23:01;17.70;99.90
33093;DHT22;19456;46.104;12.908;2022-08-14T04:25:31;17.70;99.90
33093;DHT22;19456;46.104;12.908;2022-08-14T04:28:02;17.60;99.90
33093;DHT22;19456;46.104;12.908;2022-08-14T04:30:28;17.60;99.90
33093;DHT22;19456;46.104;12.908;2022-08-14T04:32:55;17.50;99.90
33093;DHT22;19456;46.104;12.908;2022-08-14T04:35:21;17.40;99.90
33093;DHT22;19456;46.104;12.908;2022-08-14T04:37:47;17.30;99.90
33093;DHT22;19456;46.104;12.908;2022-08-14T04:40:31;17.50;99.90
33093;DHT22;19456;46.104;12.908;2022-08-14T04:43:15;17.50;99.90
33093;DHT22;19456;46.104;12.908;2022-08-14T04:45:59;17.60;99.90
33093;DHT22;19456;46.104;12.908;2022-08-14T04:48:25;17.80;99.90
33093;DHT22;19456;46.104;12.908;2022-08-14T04:50:51;17.90;99.90
33093;DHT22;19456;46.104;12.908;2022-08-14T04:53:18;17.90;99.90
33093;DHT22;19456;46.104;12.908;2022-08-14T04:55:44;17.70;99.90
33093;DHT22;19456;46.104;12.908;2022-08-14T04:58:13;17.40;99.90
33093;DHT22;19456;46.104;12.908;2022-08-14T05:00:38;17.30;99.90
33093;DHT22;19456;46.104;12.908;2022-08-14T05:03:07;17.40;99.90
33093;DHT22;19456;46.104;12.908;2022-08-14T05:05:32;17.60;99.90
33093;DHT22;19456;46.104;12.908;2022-08-14T05:08:05;17.70;99.90
33093;DHT22;19456;46.104;12.908;2022-08-14T05:10:33;18.00;99.90
33093;DHT22;19456;46.104;12.908;2022-08-14T05:12:59;18.20;99.90
33093;DHT22;19456;46.104;12.908;2022-08-14T05:15:24;18.50;99.90
33093;DHT22;19456;46.104;12.908;2022-08-14T05:17:54;18.80;99.90
33093;DHT22;19456;46.104;12.908;2022-08-14T05:20:19;18.90;99.90
33093;DHT22;19456;46.104;12.908;2022-08-14T05:22:45;19.00;99.90
33093;DHT22;19456;46.104;12.908;2022-08-14T05:25:10;19.10;99.90
33093;DHT22;19456;46.104;12.908;2022-08-14T05:27:37;19.10;99.90
33093;DHT22;19456;46.104;12.908;2022-08-14T05:30:03;19.20;99.90
33093;DHT22;19456;46.104;12.908;2022-08-14T05:32:29;19.30;99.90
33093;DHT22;19456;46.104;12.908;2022-08-14T05:34:56;19.40;99.90
33093;DHT22;19456;46.104;12.908;2022-08-14T05:37:22;19.50;99.90
33093;DHT22;19456;46.104;12.908;2022-08-14T05:39:48;19.50;99.90
33093;DHT22;19456;46.104;12.908;2022-08-14T05:42:14;19.60;99.90
33093;DHT22;19456;46.104;12.908;2022-08-14T05:44:40;19.60;99.90
33093;DHT22;19456;46.104;12.908;2022-08-14T05:47:05;19.70;99.90
33093;DHT22;19456;46.104;12.908;2022-08-14T05:49:31;19.70;99.90
33093;DHT22;19456;46.104;12.908;2022-08-14T05:51:56;19.70;99.90
33093;DHT22;19456;46.104;12.908;2022-08-14T05:54:22;19.70;99.90
33093;DHT22;19456;46.104;12.908;2022-08-14T05:56:48;19.90;99.90
33093;DHT22;19456;46.104;12.908;2022-08-14T05:59:13;20.00;99.90
33093;DHT22;19456;46.104;12.908;2022-08-14T06:01:39;20.10;99.90
33093;DHT22;19456;46.104;12.908;2022-08-14T06:04:04;20.00;99.90
33093;DHT22;19456;46.104;12.908;2022-08-14T06:06:30;20.10;99.90
33093;DHT22;19456;46.104;12.908;2022-08-14T06:08:56;20.10;99.90
33093;DHT22;19456;46.104;12.908;2022-08-14T06:11:21;20.10;99.90
33093;DHT22;19456;46.104;12.908;2022-08-14T06:13:47;20.10;99.90
33093;DHT22;19456;46.104;12.908;2022-08-14T06:16:15;20.30;99.90
33093;DHT22;19456;46.104;12.908;2022-08-14T06:18:41;20.30;99.90
33093;DHT22;19456;46.104;12.908;2022-08-14T06:21:07;20.40;99.90
33093;DHT22;19456;46.104;12.908;2022-08-14T06:23:32;20.50;99.90
33093;DHT22;19456;46.104;12.908;2022-08-14T06:25:58;20.50;99.90
33093;DHT22;19456;46.104;12.908;2022-08-14T06:28:24;20.50;99.90
33093;DHT22;19456;46.104;12.908;2022-08-14T06:30:52;20.70;99.90
33093;DHT22;19456;46.104;12.908;2022-08-14T06:33:19;20.80;99.90
33093;DHT22;19456;46.104;12.908;2022-08-14T06:35:45;20.90;99.90
33093;DHT22;19456;46.104;12.908;2022-08-14T06:38:15;21.10;99.90
33093;DHT22;19456;46.104;12.908;2022-08-14T06:40:41;21.30;99.90
33093;DHT22;19456;46.104;12.908;2022-08-14T06:43:09;21.40;99.90
33093;DHT22;19456;46.104;12.908;2022-08-14T06:45:37;21.50;99.90
33093;DHT22;19456;46.104;12.908;2022-08-14T06:48:03;21.70;99.90
33093;DHT22;19456;46.104;12.908;2022-08-14T06:50:29;21.90;99.90
33093;DHT22;19456;46.104;12.908;2022-08-14T06:52:58;22.10;99.90
33093;DHT22;19456;46.104;12.908;2022-08-14T06:55:24;22.20;99.90
33093;DHT22;19456;46.104;12.908;2022-08-14T06:57:50;22.30;99.90
33093;DHT22;19456;46.104;12.908;2022-08-14T07:00:22;22.40;99.90
33093;DHT22;19456;46.104;12.908;2022-08-14T07:02:48;22.50;99.90
33093;DHT22;19456;46.104;12.908;2022-08-14T07:05:32;22.70;99.90
33093;DHT22;19456;46.104;12.908;2022-08-14T07:08:11;22.80;99.90
33093;DHT22;19456;46.104;12.908;2022-08-14T07:10:38;22.90;99.90
33093;DHT22;19456;46.104;12.908;2022-08-14T07:13:04;23.00;99.90
33093;DHT22;19456;46.104;12.908;2022-08-14T07:15:31;23.10;99.90
33093;DHT22;19456;46.104;12.908;2022-08-14T07:17:57;23.10;99.90
33093;DHT22;19456;46.104;12.908;2022-08-14T07:20:22;23.10;99.90
33093;DHT22;19456;46.104;12.908;2022-08-14T07:22:48;23.20;99.90
33093;DHT22;19456;46.104;12.908;2022-08-14T07:25:14;23.30;99.90
33093;DHT22;19456;46.104;12.908;2022-08-14T07:27:40;23.30;99.90
33093;DHT22;19456;46.104;12.908;2022-08-14T07:30:06;23.40;99.90
33093;DHT22;19456;46.104;12.908;2022-08-14T07:32:31;23.40;99.90
33093;DHT22;19456;46.104;12.908;2022-08-14T07:34:57;23.40;99.90
33093;DHT22;19456;46.104;12.908;2022-08-14T07:37:23;23.40;99.90
33093;DHT22;19456;46.104;12.908;2022-08-14T07:39:48;23.50;99.90
33093;DHT22;19456;46.104;12.908;2022-08-14T07:42:15;23.60;99.90
33093;DHT22;19456;46.104;12.908;2022-08-14T07:44:41;23.80;99.90
33093;DHT22;19456;46.104;12.908;2022-08-14T07:47:06;23.80;99.90
33093;DHT22;19456;46.104;12.908;2022-08-14T07:49:32;24.00;99.90
33093;DHT22;19456;46.104;12.908;2022-08-14T07:51:59;24.00;99.90
33093;DHT22;19456;46.104;12.908;2022-08-14T07:54:25;23.90;99.90
33093;DHT22;19456;46.104;12.908;2022-08-14T07:56:51;24.00;99.90
33093;DHT22;19456;46.104;12.908;2022-08-14T07:59:16;24.00;99.90
33093;DHT22;19456;46.104;12.908;2022-08-14T08:01:42;24.10;99.90
33093;DHT22;19456;46.104;12.908;2022-08-14T08:04:08;24.30;99.90
33093;DHT22;19456;46.104;12.908;2022-08-14T08:06:34;24.40;99.90
33093;DHT22;19456;46.104;12.908;2022-08-14T08:09:02;24.40;99.90
33093;DHT22;19456;46.104;12.908;2022-08-14T08:11:29;24.40;99.90
33093;DHT22;19456;46.104;12.908;2022-08-14T08:13:56;24.50;99.90
33093;DHT22;19456;46.104;12.908;2022-08-14T08:16:22;24.40;99.90
33093;DHT22;19456;46.104;12.908;2022-08-14T08:18:48;24.50;99.90
33093;DHT22;19456;46.104;12.908;2022-08-14T08:21:14;24.60;99.90
33093;DHT22;19456;46.104;12.908;2022-08-14T08:23:40;24.70;99.90
33093;DHT22;19456;46.104;12.908;2022-08-14T08:26:06;24.70;99.90
33093;DHT22;19456;46.104;12.908;2022-08-14T08:28:31;24.70;99.90
33093;DHT22;19456;46.104;12.908;2022-08-14T08:30:58;24.70;99.90
33093;DHT22;19456;46.104;12.908;2022-08-14T08:33:25;24.80;99.90
33093;DHT22;19456;46.104;12.908;2022-08-14T08:35:52;24.70;99.90
33093;DHT22;19456;46.104;12.908;2022-08-14T08:38:19;24.80;99.90
33093;DHT22;19456;46.104;12.908;2022-08-14T08:40:45;24.90;99.90
33093;DHT22;19456;46.104;12.908;2022-08-14T08:43:22;25.00;99.90
33093;DHT22;19456;46.104;12.908;2022-08-14T08:45:54;25.00;99.90
33093;DHT22;19456;46.104;12.908;2022-08-14T08:48:21;25.00;99.90
33093;DHT22;19456;46.104;12.908;2022-08-14T08:50:47;25.00;99.90
33093;DHT22;19456;46.104;12.908;2022-08-14T08:53:12;25.10;99.90
33093;DHT22;19456;46.104;12.908;2022-08-14T08:55:40;25.10;99.90
33093;DHT22;19456;46.104;12.908;2022-08-14T08:58:07;25.20;99.90
33093;DHT22;19456;46.104;12.908;2022-08-14T09:00:34;25.30;99.90
33093;DHT22;19456;46.104;12.908;2022-08-14T09:05:28;25.30;99.90
33093;DHT22;19456;46.104;12.908;2022-08-14T09:07:54;25.30;99.90
33093;DHT22;19456;46.104;12.908;2022-08-14T09:10:32;25.40;99.90
33093;DHT22;19456;46.104;12.908;2022-08-14T09:12:58;25.50;99.90
33093;DHT22;19456;46.104;12.908;2022-08-14T09:15:24;25.60;99.90
33093;DHT22;19456;46.104;12.908;2022-08-14T09:17:51;25.80;99.90
33093;DHT22;19456;46.104;12.908;2022-08-14T09:20:17;25.80;99.90
33093;DHT22;19456;46.104;12.908;2022-08-14T09:22:43;25.90;99.90
33093;DHT22;19456;46.104;12.908;2022-08-14T09:25:09;26.00;99.90
33093;DHT22;19456;46.104;12.908;2022-08-14T09:27:36;25.90;99.90
33093;DHT22;19456;46.104;12.908;2022-08-14T09:30:03;26.10;99.90
33093;DHT22;19456;46.104;12.908;2022-08-14T09:32:31;26.30;99.90
33093;DHT22;19456;46.104;12.908;2022-08-14T09:37:31;26.50;99.90
33093;DHT22;19456;46.104;12.908;2022-08-14T09:40:08;26.60;99.90
33093;DHT22;19456;46.104;12.908;2022-08-14T09:47:41;27.00;99.90
33093;DHT22;19456;46.104;12.908;2022-08-14T09:52:59;26.80;99.90
33093;DHT22;19456;46.104;12.908;2022-08-14T09:55:27;26.90;99.90
33093;DHT22;19456;46.104;12.908;2022-08-14T10:03:06;26.80;99.90
33093;DHT22;19456;46.104;12.908;2022-08-14T10:05:33;26.80;99.90
33093;DHT22;19456;46.104;12.908;2022-08-14T10:07:58;26.80;99.90
33093;DHT22;19456;46.104;12.908;2022-08-14T10:10:29;26.80;99.90
33093;DHT22;19456;46.104;12.908;2022-08-14T10:12:56;26.90;99.90
33093;DHT22;19456;46.104;12.908;2022-08-14T10:15:22;27.00;99.90
33093;DHT22;19456;46.104;12.908;2022-08-14T10:17:49;27.10;99.90
33093;DHT22;19456;46.104;12.908;2022-08-14T10:20:16;27.10;99.90
33093;DHT22;19456;46.104;12.908;2022-08-14T10:22:45;27.10;99.90
33093;DHT22;19456;46.104;12.908;2022-08-14T10:25:12;27.20;99.90
33093;DHT22;19456;46.104;12.908;2022-08-14T10:27:42;27.30;99.90
33093;DHT22;19456;46.104;12.908;2022-08-14T10:30:14;27.40;99.90
33093;DHT22;19456;46.104;12.908;2022-08-14T10:32:44;27.30;99.90
33093;DHT22;19456;46.104;12.908;2022-08-14T10:35:10;27.30;99.90
33093;DHT22;19456;46.104;12.908;2022-08-14T10:37:41;27.40;99.90
33093;DHT22;19456;46.104;12.908;2022-08-14T10:40:08;27.50;99.90
33093;DHT22;19456;46.104;12.908;2022-08-14T10:42:34;27.70;99.90
33093;DHT22;19456;46.104;12.908;2022-08-14T10:45:01;27.70;99.90
33093;DHT22;19456;46.104;12.908;2022-08-14T10:47:33;27.70;99.90
33093;DHT22;19456;46.104;12.908;2022-08-14T10:49:59;27.70;99.90
33093;DHT22;19456;46.104;12.908;2022-08-14T10:52:26;28.00;99.90
33093;DHT22;19456;46.104;12.908;2022-08-14T10:55:03;28.10;99.90
33093;DHT22;19456;46.104;12.908;2022-08-14T10:57:31;28.10;99.90
33093;DHT22;19456;46.104;12.908;2022-08-14T11:00:00;28.20;99.90
33093;DHT22;19456;46.104;12.908;2022-08-14T11:02:30;28.30;99.90
33093;DHT22;19456;46.104;12.908;2022-08-14T11:04:57;28.60;99.90
33093;DHT22;19456;46.104;12.908;2022-08-14T11:07:23;28.80;99.90
33093;DHT22;19456;46.104;12.908;2022-08-14T11:09:52;28.90;99.90
33093;DHT22;19456;46.104;12.908;2022-08-14T11:12:18;29.10;99.90
33093;DHT22;19456;46.104;12.908;2022-08-14T11:14:54;29.50;99.90
33093;DHT22;19456;46.104;12.908;2022-08-14T11:17:19;29.80;99.90
33093;DHT22;19456;46.104;12.908;2022-08-14T11:19:45;30.20;99.90
33093;DHT22;19456;46.104;12.908;2022-08-14T11:22:11;30.30;99.90
33093;DHT22;19456;46.104;12.908;2022-08-14T11:24:38;30.40;99.90
33093;DHT22;19456;46.104;12.908;2022-08-14T11:27:04;30.50;99.90
33093;DHT22;19456;46.104;12.908;2022-08-14T11:29:29;30.80;99.90
33093;DHT22;19456;46.104;12.908;2022-08-14T11:31:56;31.30;99.90
33093;DHT22;19456;46.104;12.908;2022-08-14T11:34:23;31.60;99.00
33093;DHT22;19456;46.104;12.908;2022-08-14T11:36:48;31.80;97.90
33093;DHT22;19456;46.104;12.908;2022-08-14T11:39:18;32.30;97.30
33093;DHT22;19456;46.104;12.908;2022-08-14T11:41:44;32.70;96.00
33093;DHT22;19456;46.104;12.908;2022-08-14T11:44:10;32.80;95.30
33093;DHT22;19456;46.104;12.908;2022-08-14T11:46:35;33.40;94.60
33093;DHT22;19456;46.104;12.908;2022-08-14T11:49:01;33.20;92.60
33093;DHT22;19456;46.104;12.908;2022-08-14T11:51:27;33.50;92.10
33093;DHT22;19456;46.104;12.908;2022-08-14T11:53:54;33.80;91.30
33093;DHT22;19456;46.104;12.908;2022-08-14T11:56:20;34.10;90.40
33093;DHT22;19456;46.104;12.908;2022-08-14T11:58:48;34.00;89.10
33093;DHT22;19456;46.104;12.908;2022-08-14T12:01:15;33.30;89.70
33093;DHT22;19456;46.104;12.908;2022-08-14T12:03:41;33.00;89.70
33093;DHT22;19456;46.104;12.908;2022-08-14T12:06:11;32.60;90.80
33093;DHT22;19456;46.104;12.908;2022-08-14T12:08:37;32.70;91.00
33093;DHT22;19456;46.104;12.908;2022-08-14T12:11:03;32.80;91.60
33093;DHT22;19456;46.104;12.908;2022-08-14T12:13:30;33.10;91.40
33093;DHT22;19456;46.104;12.908;2022-08-14T12:16:00;33.30;90.50
33093;DHT22;19456;46.104;12.908;2022-08-14T12:18:30;33.30;90.60
33093;DHT22;19456;46.104;12.908;2022-08-14T12:20:57;33.30;90.30
33093;DHT22;19456;46.104;12.908;2022-08-14T12:23:23;33.40;90.30
33093;DHT22;19456;46.104;12.908;2022-08-14T12:25:49;33.40;90.70
33093;DHT22;19456;46.104;12.908;2022-08-14T12:28:15;33.50;90.10
33093;DHT22;19456;46.104;12.908;2022-08-14T12:30:42;33.80;89.80
33093;DHT22;19456;46.104;12.908;2022-08-14T12:33:23;33.90;89.80
33093;DHT22;19456;46.104;12.908;2022-08-14T12:35:54;34.20;90.60
33093;DHT22;19456;46.104;12.908;2022-08-14T12:38:33;34.50;88.90
33093;DHT22;19456;46.104;12.908;2022-08-14T12:41:02;34.70;88.70
33093;DHT22;19456;46.104;12.908;2022-08-14T12:43:30;34.20;88.50
33093;DHT22;19456;46.104;12.908;2022-08-14T12:45:58;34.90;88.10
33093;DHT22;19456;46.104;12.908;2022-08-14T12:48:24;34.30;86.90
33093;DHT22;19456;46.104;12.908;2022-08-14T12:50:53;34.50;85.90
33093;DHT22;19456;46.104;12.908;2022-08-14T12:53:19;33.80;86.20
33093;DHT22;19456;46.104;12.908;2022-08-14T12:55:45;33.90;86.60
33093;DHT22;19456;46.104;12.908;2022-08-14T12:58:24;33.40;86.40
33093;DHT22;19456;46.104;12.908;2022-08-14T13:00:52;33.50;87.90
33093;DHT22;19456;46.104;12.908;2022-08-14T13:03:24;33.70;87.10
33093;DHT22;19456;46.104;12.908;2022-08-14T13:05:50;33.80;87.00
33093;DHT22;19456;46.104;12.908;2022-08-14T13:08:16;34.20;86.10
33093;DHT22;19456;46.104;12.908;2022-08-14T13:10:41;35.00;85.60
33093;DHT22;19456;46.104;12.908;2022-08-14T13:13:08;35.70;83.20
33093;DHT22;19456;46.104;12.908;2022-08-14T13:15:34;35.60;80.00
33093;DHT22;19456;46.104;12.908;2022-08-14T13:18:00;35.40;78.60
33093;DHT22;19456;46.104;12.908;2022-08-14T13:20:28;35.40;79.00
33093;DHT22;19456;46.104;12.908;2022-08-14T13:22:55;35.40;77.40
33093;DHT22;19456;46.104;12.908;2022-08-14T13:25:22;35.20;76.30
33093;DHT22;19456;46.104;12.908;2022-08-14T13:27:49;35.00;78.40
33093;DHT22;19456;46.104;12.908;2022-08-14T13:30:16;35.20;76.80
33093;DHT22;19456;46.104;12.908;2022-08-14T13:32:45;35.30;75.50
33093;DHT22;19456;46.104;12.908;2022-08-14T13:35:11;35.50;74.10
33093;DHT22;19456;46.104;12.908;2022-08-14T13:37:36;35.90;74.10
33093;DHT22;19456;46.104;12.908;2022-08-14T13:40:03;36.30;73.80
33093;DHT22;19456;46.104;12.908;2022-08-14T13:42:29;36.50;73.60
33093;DHT22;19456;46.104;12.908;2022-08-14T13:44:55;37.00;71.70
33093;DHT22;19456;46.104;12.908;2022-08-14T13:47:24;37.20;70.80
33093;DHT22;19456;46.104;12.908;2022-08-14T13:49:55;35.90;69.60
33093;DHT22;19456;46.104;12.908;2022-08-14T13:52:21;36.10;71.70
33093;DHT22;19456;46.104;12.908;2022-08-14T13:54:50;37.10;70.70
33093;DHT22;19456;46.104;12.908;2022-08-14T13:57:17;36.40;67.00
33093;DHT22;19456;46.104;12.908;2022-08-14T13:59:44;36.90;68.40
33093;DHT22;19456;46.104;12.908;2022-08-14T14:02:10;37.10;66.80
33093;DHT22;19456;46.104;12.908;2022-08-14T14:04:41;37.50;64.50
33093;DHT22;19456;46.104;12.908;2022-08-14T14:07:10;38.00;66.00
33093;DHT22;19456;46.104;12.908;2022-08-14T14:09:38;38.00;64.90
33093;DHT22;19456;46.104;12.908;2022-08-14T14:12:04;38.40;63.80
33093;DHT22;19456;46.104;12.908;2022-08-14T14:14:30;39.00;62.30
33093;DHT22;19456;46.104;12.908;2022-08-14T14:16:56;39.10;61.80
33093;DHT22;19456;46.104;12.908;2022-08-14T14:19:22;38.70;61.40
33093;DHT22;19456;46.104;12.908;2022-08-14T14:21:50;38.10;61.80
33093;DHT22;19456;46.104;12.908;2022-08-14T14:24:15;37.50;62.60
33093;DHT22;19456;46.104;12.908;2022-08-14T14:26:45;37.50;62.70
33093;DHT22;19456;46.104;12.908;2022-08-14T14:29:11;37.60;62.20
33093;DHT22;19456;46.104;12.908;2022-08-14T14:31:38;37.20;60.90
33093;DHT22;19456;46.104;12.908;2022-08-14T14:34:04;37.10;62.50
33093;DHT22;19456;46.104;12.908;2022-08-14T14:36:30;37.40;61.60
33093;DHT22;19456;46.104;12.908;2022-08-14T14:39:04;37.00;61.20
33093;DHT22;19456;46.104;12.908;2022-08-14T14:41:31;36.40;62.30
33093;DHT22;19456;46.104;12.908;2022-08-14T14:43:57;36.40;62.90
33093;DHT22;19456;46.104;12.908;2022-08-14T14:46:23;37.00;62.40
33093;DHT22;19456;46.104;12.908;2022-08-14T14:48:49;37.50;61.90
33093;DHT22;19456;46.104;12.908;2022-08-14T14:51:15;37.40;61.50
33093;DHT22;19456;46.104;12.908;2022-08-14T14:53:41;37.70;61.10
33093;DHT22;19456;46.104;12.908;2022-08-14T14:56:07;37.80;59.50
33093;DHT22;19456;46.104;12.908;2022-08-14T14:58:36;37.60;59.20
33093;DHT22;19456;46.104;12.908;2022-08-14T15:01:05;37.80;58.50
33093;DHT22;19456;46.104;12.908;2022-08-14T15:03:32;37.70;58.60
33093;DHT22;19456;46.104;12.908;2022-08-14T15:05:58;37.80;58.80
33093;DHT22;19456;46.104;12.908;2022-08-14T15:08:24;38.00;57.70
33093;DHT22;19456;46.104;12.908;2022-08-14T15:10:50;37.60;58.00
33093;DHT22;19456;46.104;12.908;2022-08-14T15:13:17;37.70;57.40
33093;DHT22;19456;46.104;12.908;2022-08-14T15:15:43;37.90;58.40
33093;DHT22;19456;46.104;12.908;2022-08-14T15:18:08;38.40;57.10
33093;DHT22;19456;46.104;12.908;2022-08-14T15:20:34;38.10;57.10
33093;DHT22;19456;46.104;12.908;2022-08-14T15:23:00;38.30;57.40
33093;DHT22;19456;46.104;12.908;2022-08-14T15:25:26;38.20;56.10
33093;DHT22;19456;46.104;12.908;2022-08-14T15:27:53;37.80;57.00
33093;DHT22;19456;46.104;12.908;2022-08-14T15:30:19;38.10;56.60
33093;DHT22;19456;46.104;12.908;2022-08-14T15:32:44;37.90;56.20
33093;DHT22;19456;46.104;12.908;2022-08-14T15:35:09;37.50;57.10